Time;durP1;ratioP1;P1;durP2;ratioP2;P2;SDS_P1;SDS_P2;PMS_P1;PMS_P2;Temp;Humidity;BMP_temperature;BMP_pressure;BME280_temperature;BME280_humidity;BME280_pressure;Samples;Min_cycle;Max_cycle;Signal;HPM_P1;HPM_P2
2021/06/17 00:00:04;;;;;;;3.63;2.45;;;;;;;;;;5031316;28;20392;-88
2021/06/17 00:02:30;;;;;;;4.03;2.60;;;;;;;;;;5031241;28;20679;-88
2021/06/17 00:04:56;;;;;;;4.93;2.50;;;;;;;;;;5048736;28;20360;-88
2021/06/17 00:07:22;;;;;;;3.55;2.72;;;;;;;;;;5031158;28;20998;-89
2021/06/17 00:09:48;;;;;;;4.32;2.50;;;;;;;;;;5031179;28;20410;-88
2021/06/17 00:12:15;;;;;;;4.50;2.70;;;;;;;;;;5031216;28;20377;-89
2021/06/17 00:14:41;;;;;;;4.53;2.53;;;;;;;;;;5031220;28;20382;-88
2021/06/17 00:17:07;;;;;;;3.92;2.65;;;;;;;;;;5048444;28;20447;-89
2021/06/17 00:19:34;;;;;;;4.03;2.40;;;;;;;;;;5031000;28;20396;-89
2021/06/17 00:22:00;;;;;;;6.18;2.78;;;;;;;;;;5048824;28;20372;-88
2021/06/17 00:24:26;;;;;;;3.33;2.65;;;;;;;;;;5031462;28;20375;-89
2021/06/17 00:26:52;;;;;;;5.03;3.00;;;;;;;;;;5031937;28;20356;-89
2021/06/17 00:29:19;;;;;;;5.17;2.70;;;;;;;;;;5031080;28;20380;-88
2021/06/17 00:31:45;;;;;;;7.10;2.90;;;;;;;;;;5048404;28;20360;-88
2021/06/17 00:34:11;;;;;;;4.15;2.65;;;;;;;;;;5030440;28;20376;-90
2021/06/17 00:36:38;;;;;;;5.80;2.83;;;;;;;;;;5031129;28;20387;-89
2021/06/17 00:39:04;;;;;;;3.95;3.00;;;;;;;;;;5032628;28;20388;-90
2021/06/17 00:41:30;;;;;;;5.43;3.10;;;;;;;;;;5031372;28;20368;-89
2021/06/17 00:43:57;;;;;;;4.43;3.10;;;;;;;;;;5032104;28;20372;-88
2021/06/17 00:46:23;;;;;;;4.97;3.00;;;;;;;;;;5030835;28;20379;-89
2021/06/17 00:48:49;;;;;;;4.30;3.00;;;;;;;;;;5048464;28;20872;-90
2021/06/17 00:51:15;;;;;;;4.70;3.58;;;;;;;;;;5030909;28;20380;-89
2021/06/17 00:53:42;;;;;;;5.88;3.50;;;;;;;;;;5031909;28;20408;-89
2021/06/17 00:56:08;;;;;;;4.00;3.60;;;;;;;;;;5032615;28;20396;-88
2021/06/17 00:58:35;;;;;;;5.07;3.43;;;;;;;;;;5032114;28;20425;-88
2021/06/17 01:01:07;;;;;;;4.65;3.28;;;;;;;;;;5049240;28;20387;-91
2021/06/17 01:03:33;;;;;;;6.53;3.30;;;;;;;;;;5031400;28;20368;-88
2021/06/17 01:05:59;;;;;;;6.30;3.45;;;;;;;;;;5032090;28;20432;-90
2021/06/17 01:08:25;;;;;;;6.97;3.53;;;;;;;;;;5030945;28;20365;-90
2021/06/17 01:11:10;;;;;;;5.87;4.00;;;;;;;;;;5032127;28;20865;-89
2021/06/17 01:13:49;;;;;;;5.50;3.50;;;;;;;;;;5034374;28;20375;-89
2021/06/17 01:16:21;;;;;;;5.07;3.40;;;;;;;;;;5032491;28;20376;-89
2021/06/17 01:18:51;;;;;;;4.82;3.67;;;;;;;;;;5031163;28;20432;-90
2021/06/17 01:21:30;;;;;;;4.35;3.40;;;;;;;;;;5032205;28;20384;-90
2021/06/17 01:24:13;;;;;;;8.30;3.67;;;;;;;;;;5032398;28;20372;-92
2021/06/17 01:26:39;;;;;;;5.72;3.70;;;;;;;;;;5049325;28;20371;-88
2021/06/17 01:29:05;;;;;;;5.88;3.95;;;;;;;;;;5031681;28;20373;-90
2021/06/17 01:31:32;;;;;;;4.53;3.70;;;;;;;;;;5032495;28;20440;-89
2021/06/17 01:33:59;;;;;;;4.72;3.75;;;;;;;;;;5032794;28;20384;-89
2021/06/17 01:36:39;;;;;;;5.60;3.95;;;;;;;;;;5048397;28;20375;-88
2021/06/17 01:39:07;;;;;;;5.27;3.90;;;;;;;;;;5031064;28;20396;-89
2021/06/17 01:41:36;;;;;;;4.75;3.88;;;;;;;;;;5031900;28;21083;-89
2021/06/17 01:44:04;;;;;;;6.82;4.10;;;;;;;;;;5049524;28;20745;-90
2021/06/17 01:46:34;;;;;;;7.28;3.97;;;;;;;;;;5032528;28;20376;-91
2021/06/17 01:49:05;;;;;;;5.95;3.90;;;;;;;;;;5031756;28;20480;-89
2021/06/17 01:51:34;;;;;;;6.72;4.55;;;;;;;;;;5032628;28;20364;-89
2021/06/17 01:54:01;;;;;;;5.38;4.18;;;;;;;;;;5031214;28;20372;-90
2021/06/17 01:56:27;;;;;;;6.45;4.57;;;;;;;;;;5031858;28;20726;-90
2021/06/17 01:58:54;;;;;;;7.22;4.43;;;;;;;;;;5051632;28;20429;-89
2021/06/17 02:01:25;;;;;;;5.53;4.72;;;;;;;;;;5037408;28;20413;-89
2021/06/17 02:03:54;;;;;;;5.47;4.38;;;;;;;;;;5039607;28;20399;-91
2021/06/17 02:06:20;;;;;;;7.95;4.93;;;;;;;;;;5040258;28;20392;-89
2021/06/17 02:08:50;;;;;;;6.05;4.60;;;;;;;;;;5035272;28;20368;-90
2021/06/17 02:11:16;;;;;;;6.50;5.13;;;;;;;;;;5036459;28;20365;-90
2021/06/17 02:13:46;;;;;;;6.70;5.32;;;;;;;;;;5034547;28;20407;-90
2021/06/17 02:16:22;;;;;;;7.10;5.53;;;;;;;;;;5053492;28;20382;-90
2021/06/17 02:18:49;;;;;;;8.20;5.50;;;;;;;;;;5050449;28;20368;-90
2021/06/17 02:21:15;;;;;;;6.90;5.15;;;;;;;;;;5034283;28;20861;-90
2021/06/17 02:23:43;;;;;;;7.03;6.32;;;;;;;;;;5034829;28;20471;-90
2021/06/17 02:26:10;;;;;;;8.60;6.13;;;;;;;;;;5035233;28;20447;-90
2021/06/17 02:28:37;;;;;;;7.23;6.43;;;;;;;;;;5034429;28;20364;-90
2021/06/17 02:31:08;;;;;;;7.43;5.63;;;;;;;;;;5033972;28;20376;-89
2021/06/17 02:33:35;;;;;;;6.95;6.25;;;;;;;;;;5035067;28;20369;-90
2021/06/17 02:36:02;;;;;;;7.43;6.65;;;;;;;;;;5034123;28;20425;-89
2021/06/17 02:38:30;;;;;;;8.73;6.20;;;;;;;;;;5035255;28;20372;-90
2021/06/17 02:41:13;;;;;;;10.50;6.80;;;;;;;;;;5034473;28;20897;-90
2021/06/17 02:43:41;;;;;;;7.10;6.30;;;;;;;;;;5034872;28;20869;-90
2021/06/17 02:46:10;;;;;;;9.43;7.07;;;;;;;;;;5034883;28;20383;-90
2021/06/17 02:48:36;;;;;;;11.90;7.47;;;;;;;;;;5052256;28;20368;-90
2021/06/17 02:51:02;;;;;;;71.75;12.93;;;;;;;;;;5034514;28;20371;-90
2021/06/17 02:53:44;;;;;;;19.97;8.53;;;;;;;;;;5032966;28;20922;-92
2021/06/17 02:56:20;;;;;;;14.13;9.05;;;;;;;;;;5034581;28;20419;-90
2021/06/17 02:59:07;;;;;;;16.30;9.65;;;;;;;;;;5035562;28;20484;-90
2021/06/17 03:01:59;;;;;;;22.13;9.07;;;;;;;;;;5051913;28;20821;-90
2021/06/17 03:04:31;;;;;;;13.52;7.68;;;;;;;;;;5035463;28;20375;-90
2021/06/17 03:06:57;;;;;;;15.45;7.50;;;;;;;;;;5035071;28;20363;-91
2021/06/17 03:09:27;;;;;;;13.55;8.25;;;;;;;;;;5035889;28;20857;-90
2021/06/17 03:11:55;;;;;;;10.98;7.93;;;;;;;;;;5034149;28;20365;-91
2021/06/17 03:14:23;;;;;;;11.98;8.43;;;;;;;;;;5032994;28;20365;-91
2021/06/17 03:16:51;;;;;;;12.27;8.50;;;;;;;;;;5036985;28;20371;-91
2021/06/17 03:19:18;;;;;;;14.77;9.95;;;;;;;;;;5034039;28;20392;-91
2021/06/17 03:21:46;;;;;;;10.73;9.65;;;;;;;;;;5033969;28;20396;-90
2021/06/17 03:24:12;;;;;;;13.27;10.20;;;;;;;;;;5035090;28;20368;-90
2021/06/17 03:26:39;;;;;;;13.32;8.95;;;;;;;;;;5035356;28;20417;-91
2021/06/17 03:29:07;;;;;;;10.57;9.17;;;;;;;;;;5035472;28;20364;-92
2021/06/17 03:31:41;;;;;;;13.37;9.20;;;;;;;;;;5034638;28;20415;-90
2021/06/17 03:34:07;;;;;;;11.50;10.20;;;;;;;;;;5032673;28;20430;-90
2021/06/17 03:36:33;;;;;;;11.13;9.98;;;;;;;;;;5032346;28;20376;-91
2021/06/17 03:39:01;;;;;;;17.55;10.98;;;;;;;;;;5032981;28;20364;-90
2021/06/17 03:41:28;;;;;;;13.23;10.45;;;;;;;;;;5032684;28;20407;-89
2021/06/17 03:43:54;;;;;;;13.40;12.10;;;;;;;;;;5032192;28;20389;-90
2021/06/17 03:46:29;;;;;;;12.87;11.57;;;;;;;;;;5032273;28;20497;-90
2021/06/17 03:48:57;;;;;;;13.05;11.75;;;;;;;;;;5029288;28;20525;-89
2021/06/17 03:51:23;;;;;;;19.00;12.23;;;;;;;;;;5031818;28;20368;-91
2021/06/17 03:53:49;;;;;;;13.13;11.73;;;;;;;;;;5031849;28;20885;-91
2021/06/17 03:56:16;;;;;;;15.50;11.80;;;;;;;;;;5032890;28;20369;-91
2021/06/17 03:58:43;;;;;;;13.82;12.43;;;;;;;;;;5032333;28;20726;-90
2021/06/17 04:01:10;;;;;;;14.13;12.63;;;;;;;;;;5049643;28;20395;-91
2021/06/17 04:03:36;;;;;;;13.53;11.77;;;;;;;;;;5031677;28;20381;-89
2021/06/17 04:06:02;;;;;;;14.17;12.10;;;;;;;;;;5032053;28;20394;-90
2021/06/17 04:08:35;;;;;;;13.10;11.73;;;;;;;;;;5032515;28;20368;-91
2021/06/17 04:11:05;;;;;;;13.82;12.00;;;;;;;;;;5032380;28;20376;-92
2021/06/17 04:13:33;;;;;;;14.40;12.90;;;;;;;;;;5031885;28;20478;-92
2021/06/17 04:16:00;;;;;;;14.80;12.23;;;;;;;;;;5032043;28;20761;-89
2021/06/17 04:18:30;;;;;;;16.92;13.07;;;;;;;;;;5032100;28;20425;-90
2021/06/17 04:20:59;;;;;;;14.63;12.63;;;;;;;;;;5031756;28;20889;-90
2021/06/17 04:23:27;;;;;;;13.75;12.32;;;;;;;;;;5031545;28;20387;-89
2021/06/17 04:25:55;;;;;;;41.78;13.95;;;;;;;;;;5031254;28;20376;-87
2021/06/17 04:28:22;;;;;;;14.93;11.70;;;;;;;;;;5031274;28;20411;-88
2021/06/17 04:30:49;;;;;;;14.73;12.32;;;;;;;;;;5032247;28;20451;-91
2021/06/17 04:33:18;;;;;;;14.85;11.57;;;;;;;;;;5031716;28;20383;-89
2021/06/17 04:35:45;;;;;;;15.55;11.77;;;;;;;;;;5050080;28;20375;-89
2021/06/17 04:38:19;;;;;;;15.73;12.38;;;;;;;;;;5031925;28;20375;-89
2021/06/17 04:40:48;;;;;;;14.50;11.77;;;;;;;;;;5049304;28;20391;-91
2021/06/17 04:43:21;;;;;;;12.98;11.40;;;;;;;;;;5031735;28;20365;-89
2021/06/17 04:45:48;;;;;;;13.77;11.90;;;;;;;;;;5032425;28;20962;-90
2021/06/17 04:48:15;;;;;;;13.07;11.65;;;;;;;;;;5031397;28;20367;-90
2021/06/17 04:50:51;;;;;;;13.15;11.55;;;;;;;;;;5031071;28;20767;-89
2021/06/17 04:53:24;;;;;;;14.63;11.70;;;;;;;;;;5041064;28;20438;-90
2021/06/17 04:55:54;;;;;;;14.52;11.20;;;;;;;;;;5052576;28;20367;-91
2021/06/17 04:58:27;;;;;;;13.80;10.93;;;;;;;;;;5069192;28;20363;-88
2021/06/17 05:00:58;;;;;;;13.25;11.02;;;;;;;;;;5051437;28;20875;-91
2021/06/17 05:03:24;;;;;;;13.38;10.52;;;;;;;;;;5050859;28;20374;-88
2021/06/17 05:05:54;;;;;;;14.30;11.03;;;;;;;;;;5051646;28;20434;-92
2021/06/17 05:10:51;;;;;;;25.73;12.15;;;;;;;;;;5068470;28;20362;-90
2021/06/17 05:13:24;;;;;;;13.07;11.00;;;;;;;;;;5051187;28;20417;-91
2021/06/17 05:15:54;;;;;;;13.00;10.60;;;;;;;;;;5051557;28;20370;-91
2021/06/17 05:18:20;;;;;;;18.90;11.40;;;;;;;;;;5051043;28;20370;-90
2021/06/17 05:20:46;;;;;;;13.43;10.30;;;;;;;;;;5050746;28;20485;-90
2021/06/17 05:23:18;;;;;;;11.85;10.68;;;;;;;;;;5068491;28;20433;-91
2021/06/17 05:25:45;;;;;;;16.83;10.88;;;;;;;;;;5050998;28;20371;-93
2021/06/17 05:28:14;;;;;;;15.32;10.75;;;;;;;;;;5050768;28;20478;-91
2021/06/17 05:30:44;;;;;;;17.80;11.13;;;;;;;;;;5056503;28;20362;-93
2021/06/17 05:33:10;;;;;;;22.98;11.73;;;;;;;;;;5057457;28;20390;-89
2021/06/17 05:35:36;;;;;;;17.83;11.70;;;;;;;;;;5076284;28;20720;-91
2021/06/17 05:38:03;;;;;;;14.35;11.50;;;;;;;;;;5057450;28;20402;-91
2021/06/17 05:40:29;;;;;;;13.90;10.68;;;;;;;;;;5054154;28;20401;-89
2021/06/17 05:42:55;;;;;;;14.00;10.90;;;;;;;;;;5054038;28;20377;-89
2021/06/17 05:45:21;;;;;;;13.07;10.80;;;;;;;;;;5053662;28;20462;-89
2021/06/17 05:47:50;;;;;;;13.93;10.55;;;;;;;;;;5072733;28;20831;-89
2021/06/17 05:50:19;;;;;;;13.32;11.60;;;;;;;;;;5054598;28;20376;-92
2021/06/17 05:52:45;;;;;;;14.00;10.88;;;;;;;;;;5054600;28;20378;-89
2021/06/17 05:55:12;;;;;;;14.50;12.32;;;;;;;;;;5054002;28;20370;-90
2021/06/17 05:57:38;;;;;;;11.93;10.70;;;;;;;;;;5053589;28;20369;-89
2021/06/17 06:00:06;;;;;;;13.68;10.95;;;;;;;;;;5053797;28;20410;-89
2021/06/17 06:02:32;;;;;;;14.30;10.15;;;;;;;;;;5054651;28;20371;-93
2021/06/17 06:05:04;;;;;;;13.63;10.05;;;;;;;;;;5053883;28;20385;-91
2021/06/17 06:07:30;;;;;;;13.35;10.30;;;;;;;;;;5071651;28;20370;-90
2021/06/17 06:09:56;;;;;;;16.25;10.48;;;;;;;;;;5054379;28;20420;-90
2021/06/17 06:12:22;;;;;;;17.92;10.77;;;;;;;;;;5053727;28;20898;-91
2021/06/17 06:14:49;;;;;;;13.77;10.27;;;;;;;;;;5053501;28;20428;-89
2021/06/17 06:17:15;;;;;;;14.52;10.18;;;;;;;;;;5053784;28;20374;-90
2021/06/17 06:19:41;;;;;;;11.57;10.20;;;;;;;;;;5088123;27;20382;-88
2021/06/17 06:22:08;;;;;;;10.60;9.37;;;;;;;;;;5160279;27;20446;-91
2021/06/17 06:24:35;;;;;;;11.38;10.15;;;;;;;;;;5159320;27;20358;-92
2021/06/17 06:27:01;;;;;;;13.60;9.93;;;;;;;;;;5158710;27;20366;-92
2021/06/17 06:29:28;;;;;;;13.30;10.68;;;;;;;;;;5158747;27;20449;-89
2021/06/17 06:31:54;;;;;;;40.22;12.05;;;;;;;;;;5158200;27;20380;-93
2021/06/17 06:34:27;;;;;;;12.05;9.80;;;;;;;;;;5158373;27;20372;-90
2021/06/17 06:36:53;;;;;;;12.38;9.38;;;;;;;;;;5158029;27;20418;-92
2021/06/17 06:39:20;;;;;;;15.65;9.57;;;;;;;;;;5158000;27;20425;-90
2021/06/17 06:41:47;;;;;;;34.53;11.45;;;;;;;;;;5158238;27;20401;-90
2021/06/17 06:44:13;;;;;;;11.45;8.90;;;;;;;;;;5176951;27;20401;-93
2021/06/17 06:46:40;;;;;;;10.10;8.60;;;;;;;;;;5158693;27;20349;-89
2021/06/17 06:49:06;;;;;;;20.73;10.00;;;;;;;;;;5124859;27;20441;-90
2021/06/17 06:51:35;;;;;;;16.37;8.97;;;;;;;;;;5052981;28;20370;-90
2021/06/17 06:54:02;;;;;;;81.63;13.90;;;;;;;;;;5054171;27;20855;-90
2021/06/17 06:56:28;;;;;;;41.00;11.65;;;;;;;;;;5053555;28;20366;-92
2021/06/17 06:58:54;;;;;;;10.70;8.40;;;;;;;;;;5052937;28;20363;-91
2021/06/17 07:01:20;;;;;;;38.50;11.02;;;;;;;;;;5071072;27;20381;-90
2021/06/17 07:03:46;;;;;;;9.52;7.80;;;;;;;;;;5053357;28;20383;-90
2021/06/17 07:06:13;;;;;;;12.05;8.15;;;;;;;;;;5054808;27;20419;-91
2021/06/17 07:08:41;;;;;;;12.07;8.25;;;;;;;;;;5057957;27;20440;-92
2021/06/17 07:11:07;;;;;;;14.57;8.48;;;;;;;;;;5118046;27;20386;-92
2021/06/17 07:13:33;;;;;;;12.60;8.50;;;;;;;;;;5059145;27;20373;-94
2021/06/17 07:16:05;;;;;;;14.53;8.40;;;;;;;;;;5060850;27;20488;-91
2021/06/17 07:18:33;;;;;;;13.30;8.27;;;;;;;;;;5057083;27;20736;-91
2021/06/17 07:21:00;;;;;;;14.10;8.67;;;;;;;;;;5059017;27;20741;-89
2021/06/17 07:23:31;;;;;;;9.40;8.27;;;;;;;;;;5119469;27;20401;-93
2021/06/17 07:25:57;;;;;;;11.50;8.95;;;;;;;;;;5056895;27;20399;-90
2021/06/17 07:28:24;;;;;;;13.67;9.40;;;;;;;;;;5058478;27;20417;-91
2021/06/17 07:30:53;;;;;;;12.43;8.13;;;;;;;;;;5058167;27;20441;-92
2021/06/17 07:33:21;;;;;;;13.98;9.25;;;;;;;;;;5059485;27;20361;-91
2021/06/17 07:35:47;;;;;;;10.90;8.80;;;;;;;;;;5117250;27;20398;-91
2021/06/17 07:38:16;;;;;;;11.10;8.63;;;;;;;;;;5060339;27;20727;-89
2021/06/17 07:40:42;;;;;;;11.30;8.70;;;;;;;;;;5058575;27;20508;-91
2021/06/17 07:43:11;;;;;;;43.20;11.70;;;;;;;;;;5057546;27;20905;-92
2021/06/17 07:45:37;;;;;;;10.88;8.93;;;;;;;;;;5056101;27;20374;-91
2021/06/17 07:48:04;;;;;;;13.13;8.90;;;;;;;;;;5119277;27;20387;-90
2021/06/17 07:50:33;;;;;;;10.03;8.73;;;;;;;;;;5158113;27;20422;-93
2021/06/17 07:52:59;;;;;;;14.38;8.75;;;;;;;;;;5156528;27;20362;-91
2021/06/17 07:55:28;;;;;;;30.90;9.65;;;;;;;;;;5157118;27;20413;-91
2021/06/17 07:57:54;;;;;;;27.13;10.43;;;;;;;;;;5157490;27;20402;-91
2021/06/17 08:00:20;;;;;;;11.35;8.43;;;;;;;;;;5156966;27;20374;-92
2021/06/17 08:02:46;;;;;;;18.63;9.23;;;;;;;;;;5156843;27;20744;-90
2021/06/17 08:05:15;;;;;;;20.42;9.43;;;;;;;;;;5157961;27;20358;-89
2021/06/17 08:07:42;;;;;;;9.82;8.10;;;;;;;;;;5157172;27;20862;-92
2021/06/17 08:10:11;;;;;;;17.10;8.77;;;;;;;;;;5157438;27;20405;-92
2021/06/17 08:12:39;;;;;;;12.60;8.73;;;;;;;;;;5158061;27;20370;-93
2021/06/17 08:15:06;;;;;;;11.48;8.63;;;;;;;;;;5157718;27;20486;-92
2021/06/17 08:17:32;;;;;;;10.70;8.77;;;;;;;;;;5157325;27;20358;-90
2021/06/17 08:19:58;;;;;;;10.33;8.37;;;;;;;;;;5157500;27;20756;-90
2021/06/17 08:22:26;;;;;;;9.23;8.23;;;;;;;;;;5157087;27;20366;-91
2021/06/17 08:24:55;;;;;;;11.18;8.32;;;;;;;;;;5157689;27;20382;-92
2021/06/17 08:27:21;;;;;;;161.13;20.95;;;;;;;;;;5156758;27;20365;-91
2021/06/17 08:29:50;;;;;;;13.40;8.48;;;;;;;;;;5157370;27;20715;-92
2021/06/17 08:32:17;;;;;;;11.00;7.85;;;;;;;;;;5156475;27;20390;-91
2021/06/17 08:34:44;;;;;;;11.75;8.43;;;;;;;;;;5156289;27;20370;-90
2021/06/17 08:37:10;;;;;;;10.57;8.00;;;;;;;;;;5157618;27;20366;-92
2021/06/17 08:39:36;;;;;;;10.52;7.80;;;;;;;;;;5156647;27;20448;-91
2021/06/17 08:42:02;;;;;;;13.45;7.80;;;;;;;;;;5156510;27;20358;-92
2021/06/17 08:44:29;;;;;;;9.80;7.97;;;;;;;;;;5097922;27;20460;-90
2021/06/17 08:47:19;;;;;;;11.45;8.02;;;;;;;;;;5075969;27;20367;-94
2021/06/17 08:49:45;;;;;;;10.07;8.10;;;;;;;;;;5057910;28;20439;-91
2021/06/17 08:52:22;;;;;;;31.38;9.88;;;;;;;;;;5071898;27;20365;-89
2021/06/17 08:55:16;;;;;;;10.53;7.57;;;;;;;;;;5090011;28;20734;-93
2021/06/17 08:57:53;;;;;;;12.13;8.38;;;;;;;;;;5059291;27;20962;-91
2021/06/17 09:00:34;;;;;;;27.23;9.60;;;;;;;;;;5058111;27;20412;-91
2021/06/17 09:03:11;;;;;;;9.67;8.27;;;;;;;;;;5058055;27;20425;-94
2021/06/17 09:05:42;;;;;;;10.93;7.60;;;;;;;;;;5057825;27;20439;-90
2021/06/17 09:08:20;;;;;;;13.10;8.23;;;;;;;;;;5051974;27;20371;-92
2021/06/17 09:10:50;;;;;;;14.88;8.05;;;;;;;;;;5056272;27;20400;-89
2021/06/17 09:13:16;;;;;;;13.27;7.50;;;;;;;;;;5115652;27;20454;-91
2021/06/17 09:15:52;;;;;;;16.98;7.90;;;;;;;;;;5053852;27;20723;-90
2021/06/17 09:18:20;;;;;;;345.13;46.88;;;;;;;;;;5054549;27;20405;-93
2021/06/17 09:20:54;;;;;;;21.50;8.68;;;;;;;;;;5056987;27;21468;-91
2021/06/17 09:23:24;;;;;;;16.65;7.93;;;;;;;;;;5058989;27;20375;-91
2021/06/17 09:26:04;;;;;;;11.43;7.03;;;;;;;;;;5055329;27;20402;-92
2021/06/17 09:29:42;;;;;;;;;;;;;;;;;;;;;
2021/06/17 09:31:48;;;;;;;9.80;6.60;;;;;;;;;;5104487;27;20397;-91
2021/06/17 09:34:29;;;;;;;8.07;6.32;;;;;;;;;;5118730;27;20398;-89
2021/06/17 09:37:01;;;;;;;17.80;7.50;;;;;;;;;;5052892;27;20389;-92
2021/06/17 09:39:29;;;;;;;11.07;6.47;;;;;;;;;;5116655;27;20401;-90
2021/06/17 09:41:57;;;;;;;7.03;6.15;;;;;;;;;;5056530;27;20374;-92
2021/06/17 09:44:35;;;;;;;7.65;5.93;;;;;;;;;;5051456;28;20366;-91
2021/06/17 09:47:27;;;;;;;8.80;5.90;;;;;;;;;;5050383;28;20447;-91
2021/06/17 09:50:06;;;;;;;8.20;5.63;;;;;;;;;;5068328;28;20419;-91
2021/06/17 09:52:40;;;;;;;9.48;6.15;;;;;;;;;;5051363;28;20378;-91
2021/06/17 09:55:08;;;;;;;12.40;6.40;;;;;;;;;;5050654;28;20441;-89
2021/06/17 09:57:39;;;;;;;9.48;6.22;;;;;;;;;;5050080;28;20434;-90
2021/06/17 10:00:12;;;;;;;9.93;5.60;;;;;;;;;;5067972;28;20851;-90
2021/06/17 10:02:43;;;;;;;10.18;5.93;;;;;;;;;;5050811;28;20446;-92
2021/06/17 10:05:21;;;;;;;7.17;4.97;;;;;;;;;;5051405;28;20367;-93
2021/06/17 10:07:48;;;;;;;9.35;5.43;;;;;;;;;;5050685;28;21158;-89
2021/06/17 10:10:22;;;;;;;10.52;5.65;;;;;;;;;;5051315;28;20374;-90
2021/06/17 10:12:48;;;;;;;6.75;5.05;;;;;;;;;;5050837;28;20865;-91
2021/06/17 10:15:15;;;;;;;10.50;5.93;;;;;;;;;;5080398;27;20382;-93
2021/06/17 10:17:41;;;;;;;8.10;5.40;;;;;;;;;;5051482;28;20378;-92
2021/06/17 10:20:14;;;;;;;9.05;5.40;;;;;;;;;;5049265;27;20408;-89
2021/06/17 10:22:40;;;;;;;16.43;6.13;;;;;;;;;;5051564;28;20389;-92
2021/06/17 10:25:09;;;;;;;16.42;6.32;;;;;;;;;;5054661;28;20371;-91
2021/06/17 10:27:44;;;;;;;8.13;5.88;;;;;;;;;;5053669;28;20367;-90
2021/06/17 10:30:11;;;;;;;7.97;5.67;;;;;;;;;;5054193;28;20367;-91
2021/06/17 10:32:38;;;;;;;8.77;5.60;;;;;;;;;;5054428;27;20385;-89
2021/06/17 10:35:07;;;;;;;28.52;7.50;;;;;;;;;;5053845;28;20384;-91
2021/06/17 10:37:34;;;;;;;7.20;5.85;;;;;;;;;;5054196;27;20423;-89
2021/06/17 10:40:08;;;;;;;8.68;5.18;;;;;;;;;;5125973;27;20386;-93
2021/06/17 10:42:39;;;;;;;11.85;6.05;;;;;;;;;;5112465;27;20724;-94
2021/06/17 10:45:08;;;;;;;16.27;6.50;;;;;;;;;;5054538;28;20454;-91
2021/06/17 10:50:09;;;;;;;7.13;5.50;;;;;;;;;;5071933;28;20885;-91
2021/06/17 10:52:36;;;;;;;7.72;4.40;;;;;;;;;;5054147;28;20366;-92
2021/06/17 10:55:03;;;;;;;16.70;5.45;;;;;;;;;;5054112;28;20378;-90
2021/06/17 10:57:53;;;;;;;9.18;4.78;;;;;;;;;;5053992;28;20370;-89
2021/06/17 11:00:37;;;;;;;8.57;4.63;;;;;;;;;;5054161;28;20393;-93
2021/06/17 11:03:06;;;;;;;9.50;4.70;;;;;;;;;;5054370;28;20363;-91
2021/06/17 11:05:36;;;;;;;7.55;4.53;;;;;;;;;;5054370;27;20430;-91
2021/06/17 11:08:17;;;;;;;9.95;4.60;;;;;;;;;;5054940;28;20377;-92
2021/06/17 11:10:52;;;;;;;8.13;4.30;;;;;;;;;;5055315;27;20510;-91
2021/06/17 11:13:44;;;;;;;6.93;4.37;;;;;;;;;;5054299;27;20453;-92
2021/06/17 11:16:14;;;;;;;12.75;4.80;;;;;;;;;;5053773;28;20898;-92
2021/06/17 11:19:08;;;;;;;11.07;5.13;;;;;;;;;;5058222;27;20368;-91
2021/06/17 11:21:43;;;;;;;64.60;10.15;;;;;;;;;;5056944;27;20386;-93
2021/06/17 11:24:18;;;;;;;10.43;4.75;;;;;;;;;;5060642;27;20386;-91
2021/06/17 11:26:48;;;;;;;5.78;4.65;;;;;;;;;;5055792;27;20371;-91
2021/06/17 11:29:22;;;;;;;6.07;4.00;;;;;;;;;;5096984;27;20374;-91
2021/06/17 11:31:53;;;;;;;5.95;4.40;;;;;;;;;;5176849;27;20414;-92
2021/06/17 11:34:34;;;;;;;6.60;4.43;;;;;;;;;;5158211;27;20366;-93
2021/06/17 11:37:04;;;;;;;7.40;4.60;;;;;;;;;;5159558;27;20365;-90
2021/06/17 11:39:34;;;;;;;6.63;4.40;;;;;;;;;;5157373;27;20397;-93
2021/06/17 11:42:06;;;;;;;5.95;4.28;;;;;;;;;;5159062;27;20373;-91
2021/06/17 11:44:35;;;;;;;6.93;4.28;;;;;;;;;;5158194;27;20358;-93
2021/06/17 11:47:09;;;;;;;7.40;4.43;;;;;;;;;;5175649;27;20358;-91
2021/06/17 11:49:48;;;;;;;7.10;4.32;;;;;;;;;;5158871;27;20851;-90
2021/06/17 11:52:19;;;;;;;4.45;3.70;;;;;;;;;;5157436;27;20373;-93
2021/06/17 11:54:46;;;;;;;5.40;3.85;;;;;;;;;;5158584;27;20381;-92
2021/06/17 11:57:12;;;;;;;19.23;5.47;;;;;;;;;;5158044;27;20358;-87
2021/06/17 11:59:44;;;;;;;10.77;4.30;;;;;;;;;;5159821;27;20428;-90
2021/06/17 12:02:43;;;;;;;20.75;5.15;;;;;;;;;;5158937;27;20396;-91
2021/06/17 12:05:10;;;;;;;4.95;4.18;;;;;;;;;;5144919;27;20354;-90
2021/06/17 12:07:49;;;;;;;8.98;4.00;;;;;;;;;;5158286;27;20358;-94
2021/06/17 12:10:21;;;;;;;7.30;4.25;;;;;;;;;;5159775;27;20394;-90
2021/06/17 12:13:05;;;;;;;11.23;4.30;;;;;;;;;;5159374;27;20373;-93
2021/06/17 12:15:36;;;;;;;8.60;4.07;;;;;;;;;;5158931;27;20362;-92
2021/06/17 12:18:03;;;;;;;17.73;4.95;;;;;;;;;;5158746;27;20357;-90
2021/06/17 12:20:37;;;;;;;15.30;5.25;;;;;;;;;;5157047;27;20393;-91
2021/06/17 12:23:16;;;;;;;13.70;4.90;;;;;;;;;;5158700;27;20464;-89
2021/06/17 12:25:59;;;;;;;14.27;5.50;;;;;;;;;;5158514;27;20447;-92
2021/06/17 12:28:26;;;;;;;11.90;5.33;;;;;;;;;;5157898;27;20354;-92
2021/06/17 12:30:55;;;;;;;8.65;5.25;;;;;;;;;;5158214;27;20474;-90
2021/06/17 12:33:37;;;;;;;6.60;4.70;;;;;;;;;;5157549;27;20361;-89
2021/06/17 12:36:05;;;;;;;5.63;4.38;;;;;;;;;;5158467;27;20365;-89
2021/06/17 12:38:34;;;;;;;57.58;10.40;;;;;;;;;;5157447;27;20361;-92
2021/06/17 12:41:18;;;;;;;10.75;5.25;;;;;;;;;;5157849;27;20747;-90
2021/06/17 12:43:59;;;;;;;7.38;4.57;;;;;;;;;;5158634;27;20843;-91
2021/06/17 12:46:31;;;;;;;6.88;4.10;;;;;;;;;;5157137;27;20360;-92
2021/06/17 12:52:06;;;;;;;9.43;4.55;;;;;;;;;;5176154;27;20361;-91
2021/06/17 12:54:35;;;;;;;9.40;4.93;;;;;;;;;;5157458;27;20696;-90
2021/06/17 12:57:02;;;;;;;18.35;5.30;;;;;;;;;;5157464;27;20358;-90
2021/06/17 12:59:39;;;;;;;7.68;4.32;;;;;;;;;;5157452;27;20382;-90
2021/06/17 13:02:06;;;;;;;5.15;4.60;;;;;;;;;;5157521;27;20366;-88
2021/06/17 13:04:32;;;;;;;23.00;5.70;;;;;;;;;;5157640;27;20368;-91
2021/06/17 13:06:59;;;;;;;7.43;4.53;;;;;;;;;;5157617;27;20371;-91
2021/06/17 13:09:33;;;;;;;28.50;5.97;;;;;;;;;;5156949;27;20373;-93
2021/06/17 13:12:05;;;;;;;8.27;4.32;;;;;;;;;;5156745;27;20365;-92
2021/06/17 13:14:34;;;;;;;12.88;5.18;;;;;;;;;;5157872;27;20365;-91
2021/06/17 13:17:04;;;;;;;15.82;5.30;;;;;;;;;;5156640;27;20354;-91
2021/06/17 13:19:30;;;;;;;7.45;4.60;;;;;;;;;;5156230;27;20381;-89
2021/06/17 13:21:58;;;;;;;45.40;8.38;;;;;;;;;;5156693;27;20370;-92
2021/06/17 13:24:27;;;;;;;5.55;4.30;;;;;;;;;;5156638;27;20358;-92
2021/06/17 13:27:16;;;;;;;10.43;4.87;;;;;;;;;;5157154;27;20482;-93
2021/06/17 13:30:00;;;;;;;10.23;4.50;;;;;;;;;;5156842;27;20350;-91
2021/06/17 13:32:30;;;;;;;7.82;4.70;;;;;;;;;;5157297;27;20768;-91
2021/06/17 13:34:56;;;;;;;16.25;5.43;;;;;;;;;;5157606;27;20357;-91
2021/06/17 13:37:25;;;;;;;6.97;4.07;;;;;;;;;;5157089;27;20365;-91
2021/06/17 13:40:00;;;;;;;7.72;4.78;;;;;;;;;;5157318;27;20416;-92
2021/06/17 13:42:34;;;;;;;12.17;5.13;;;;;;;;;;5156999;27;20354;-93
2021/06/17 13:45:03;;;;;;;11.48;4.70;;;;;;;;;;5157107;27;20382;-93
2021/06/17 13:47:31;;;;;;;11.00;4.80;;;;;;;;;;5157063;27;20385;-94
2021/06/17 13:49:57;;;;;;;11.85;5.45;;;;;;;;;;5157044;27;20361;-92
2021/06/17 13:52:26;;;;;;;5.63;4.60;;;;;;;;;;5156888;27;20389;-91
2021/06/17 13:54:55;;;;;;;10.18;4.63;;;;;;;;;;5175872;27;20891;-92
2021/06/17 13:57:24;;;;;;;18.42;5.82;;;;;;;;;;5159398;27;20405;-93
2021/06/17 13:59:53;;;;;;;10.13;4.82;;;;;;;;;;5161424;27;20377;-90
2021/06/17 14:02:19;;;;;;;10.20;4.40;;;;;;;;;;5160524;27;20453;-92
2021/06/17 14:04:47;;;;;;;8.07;5.07;;;;;;;;;;5161272;27;20358;-92
2021/06/17 14:07:14;;;;;;;54.88;8.57;;;;;;;;;;5160290;27;20411;-90
2021/06/17 14:09:42;;;;;;;10.80;4.70;;;;;;;;;;5160909;27;20369;-90
2021/06/17 14:12:12;;;;;;;9.57;4.90;;;;;;;;;;5161071;27;20379;-87
2021/06/17 14:14:53;;;;;;;8.80;4.77;;;;;;;;;;5097350;27;20413;-90
2021/06/17 14:17:22;;;;;;;8.43;4.63;;;;;;;;;;5077611;28;20798;-92
2021/06/17 14:19:48;;;;;;;5.97;4.47;;;;;;;;;;5075366;27;20441;-90
2021/06/17 14:22:17;;;;;;;7.88;4.50;;;;;;;;;;5093267;27;20372;-92
2021/06/17 14:24:46;;;;;;;5.68;4.28;;;;;;;;;;5075562;27;20434;-93
2021/06/17 14:27:12;;;;;;;5.78;4.28;;;;;;;;;;5074877;27;20413;-93
2021/06/17 14:29:38;;;;;;;7.80;4.67;;;;;;;;;;5075928;27;20372;-91
2021/06/17 14:32:04;;;;;;;10.68;4.68;;;;;;;;;;5075430;27;20369;-90
2021/06/17 14:34:40;;;;;;;5.47;4.32;;;;;;;;;;5067957;27;20363;-92
2021/06/17 14:37:09;;;;;;;7.25;4.40;;;;;;;;;;5053734;28;20370;-90
2021/06/17 14:39:38;;;;;;;10.73;4.18;;;;;;;;;;5054207;28;20470;-90
2021/06/17 14:42:04;;;;;;;4.95;4.40;;;;;;;;;;5055449;28;20389;-88
2021/06/17 14:44:31;;;;;;;5.35;4.13;;;;;;;;;;5054100;28;20911;-92
2021/06/17 14:46:58;;;;;;;6.07;4.43;;;;;;;;;;5054879;28;20374;-92
2021/06/17 14:49:27;;;;;;;10.75;4.47;;;;;;;;;;5055747;28;20479;-90
2021/06/17 14:51:53;;;;;;;7.35;4.32;;;;;;;;;;5072806;27;20723;-92
2021/06/17 14:54:25;;;;;;;7.00;4.07;;;;;;;;;;5054699;28;20903;-91
2021/06/17 14:56:55;;;;;;;6.10;4.40;;;;;;;;;;5060472;27;20450;-90